Time;durP1;ratioP1;P1;durP2;ratioP2;P2;SDS_P1;SDS_P2;PMS_P1;PMS_P2;Temp;Humidity;BMP_temperature;BMP_pressure;BME280_temperature;BME280_humidity;BME280_pressure;Samples;Min_cycle;Max_cycle;Signal;HPM_P1;HPM_P2
2021/08/02 00:06:27;;;;;;;3.50;1.55;;;14.10;99.90;;;;;;5009237;28;20042;-83
2021/08/02 00:09:16;;;;;;;6.35;1.42;;;14.90;99.90;;;;;;5016100;28;20041;-84
2021/08/02 00:12:02;;;;;;;4.07;1.77;;;15.50;99.90;;;;;;5015780;28;20431;-83
2021/08/02 00:14:57;;;;;;;4.47;1.60;;;14.30;99.90;;;;;;5033072;28;20095;-83
2021/08/02 00:17:26;;;;;;;2.75;1.48;;;15.30;99.90;;;;;;5017485;28;20482;-83
2021/08/02 00:20:31;;;;;;;5.47;1.70;;;14.40;99.90;;;;;;5032619;28;20402;-83
2021/08/02 00:23:11;;;;;;;4.20;1.48;;;15.20;99.90;;;;;;5015390;28;20561;-83
2021/08/02 00:26:08;;;;;;;4.30;1.48;;;14.70;99.90;;;;;;5017754;28;20026;-83
2021/08/02 00:28:42;;;;;;;6.13;1.65;;;15.60;99.90;;;;;;5021466;28;20052;-84
2021/08/02 00:31:30;;;;;;;5.05;1.40;;;15.00;99.90;;;;;;5033978;28;20026;-82
2021/08/02 00:34:10;;;;;;;3.80;1.35;;;14.30;99.90;;;;;;5005122;28;20045;-83
2021/08/02 00:37:06;;;;;;;5.00;1.88;;;14.90;99.90;;;;;;5017718;28;20034;-83
2021/08/02 00:40:11;;;;;;;4.60;1.50;;;13.60;99.90;;;;;;5017006;28;20030;-83
2021/08/02 00:43:02;;;;;;;4.45;1.70;;;14.60;99.90;;;;;;5020055;28;20034;-83
2021/08/02 00:45:45;;;;;;;2.80;1.20;;;14.60;99.90;;;;;;5013563;28;20034;-83
2021/08/02 00:48:29;;;;;;;6.68;1.83;;;14.60;99.90;;;;;;4998448;28;20073;-83
2021/08/02 00:51:16;;;;;;;3.63;1.58;;;14.70;99.90;;;;;;5014230;28;20030;-83
2021/08/02 00:54:01;;;;;;;2.92;1.50;;;15.00;99.90;;;;;;5013705;28;20470;-84
2021/08/02 00:56:57;;;;;;;3.25;1.63;;;13.90;99.90;;;;;;5003620;28;20132;-83
2021/08/02 00:59:49;;;;;;;;;;;;;;;;;;;;;
2021/08/02 01:02:41;;;;;;;7.25;1.58;;;14.10;99.90;;;;;;5033958;28;20029;-83
2021/08/02 01:05:24;;;;;;;5.78;1.83;;;13.40;99.90;;;;;;5032844;28;20030;-83
2021/08/02 01:08:07;;;;;;;3.55;1.58;;;15.20;99.90;;;;;;5015383;28;20037;-83
2021/08/02 01:10:51;;;;;;;3.10;1.50;;;15.10;99.90;;;;;;5031908;28;20068;-83
2021/08/02 01:13:34;;;;;;;4.25;1.58;;;16.20;99.90;;;;;;5009908;28;20033;-83
2021/08/02 01:16:25;;;;;;;4.00;1.20;;;15.30;99.90;;;;;;5032739;28;20100;-83
2021/08/02 01:18:58;;;;;;;3.72;1.55;;;14.00;99.90;;;;;;5014815;28;20064;-83
2021/08/02 01:35:29;;;;;;;6.70;1.38;;;16.20;99.90;;;;;;5372026;23;20536;-84
2021/08/02 01:38:14;;;;;;;5.03;1.25;;;14.60;99.90;;;;;;5071628;28;20040;-83
2021/08/02 01:41:30;;;;;;;6.45;1.42;;;14.50;99.90;;;;;;5051972;28;20016;-83
2021/08/02 01:44:31;;;;;;;4.28;1.55;;;14.30;99.90;;;;;;5056400;23;20434;-83
2021/08/02 01:47:54;;;;;;;4.50;1.58;;;15.10;99.90;;;;;;5050674;28;20119;-83
2021/08/02 01:54:06;;;;;;;3.33;1.35;;;14.80;99.90;;;;;;5029984;28;20107;-83
2021/08/02 02:01:05;;;;;;;3.20;1.48;;;15.10;99.90;;;;;;4934392;29;20038;-83
2021/08/02 02:22:05;;;;;;;3.47;1.48;;;14.80;99.90;;;;;;5028954;28;20107;-83
2021/08/02 02:25:33;;;;;;;3.10;1.48;;;15.80;99.90;;;;;;5024908;28;20033;-83
2021/08/02 02:28:19;;;;;;;;;;;;;;;;;;;;;
2021/08/02 02:31:39;;;;;;;6.75;1.63;;;15.10;99.90;;;;;;5012024;28;20022;-83
2021/08/02 02:34:12;;;;;;;8.77;1.50;;;14.90;99.90;;;;;;5007872;28;20037;-83
2021/08/02 02:37:11;;;;;;;5.95;1.40;;;14.70;99.90;;;;;;5012300;28;20022;-83
2021/08/02 02:40:40;;;;;;;;;;;;;;;;;;;;;
2021/08/02 02:56:21;;;;;;;3.28;1.50;;;15.60;99.90;;;;;;4989161;28;20038;-83
2021/08/02 02:59:11;;;;;;;3.35;1.65;;;14.90;99.90;;;;;;5034090;28;20525;-83
2021/08/02 03:05:48;;;;;;;7.28;1.85;;;14.40;99.90;;;;;;5027421;28;20087;-83
2021/08/02 03:08:59;;;;;;;6.40;1.60;;;15.60;99.90;;;;;;5029881;28;20556;-83
2021/08/02 03:11:54;;;;;;;6.32;1.88;;;15.60;99.90;;;;;;5014043;28;20049;-83
2021/08/02 03:15:24;;;;;;;;;;;;;;;;;;;;;
2021/08/02 03:22:11;;;;;;;4.07;1.67;;;15.10;99.90;;;;;;5008831;28;20467;-83
2021/08/02 03:32:27;;;;;;;;;;;;;;;;;;;;;
2021/08/02 03:39:03;;;;;;;3.50;1.60;;;14.40;99.90;;;;;;4849496;29;20033;-83
2021/08/02 03:42:35;;;;;;;5.40;1.65;;;15.30;99.90;;;;;;4882245;29;20124;-84
2021/08/02 03:52:31;;;;;;;6.22;1.67;;;15.40;99.90;;;;;;5055054;28;20446;-83
2021/08/02 04:11:02;;;;;;;6.93;1.60;;;14.50;99.90;;;;;;1484224;26;20045;-83
2021/08/02 04:13:45;;;;;;;8.00;1.38;;;15.30;99.90;;;;;;5014213;28;20057;-83
2021/08/02 04:16:10;;;;;;;6.35;1.67;;;15.40;99.90;;;;;;5059377;23;20049;-78
2021/08/02 04:18:36;;;;;;;3.17;1.40;;;14.40;99.90;;;;;;5059487;28;20501;-78
2021/08/02 04:21:01;;;;;;;2.83;1.30;;;14.60;99.90;;;;;;5060685;28;20434;-78
2021/08/02 04:23:27;;;;;;;3.78;1.67;;;14.50;99.90;;;;;;5054170;28;20083;-78
2021/08/02 04:25:53;;;;;;;5.47;1.50;;;14.40;99.90;;;;;;5041674;28;20073;-79
2021/08/02 04:28:18;;;;;;;5.22;1.20;;;14.50;99.90;;;;;;5040610;28;20025;-78
2021/08/02 04:30:44;;;;;;;5.90;1.63;;;14.50;99.90;;;;;;5040450;28;20025;-78
2021/08/02 04:33:10;;;;;;;6.28;1.73;;;14.40;99.90;;;;;;5039983;28;20022;-79
2021/08/02 04:35:35;;;;;;;3.60;1.63;;;14.90;99.90;;;;;;5040321;28;20022;-79
2021/08/02 04:38:01;;;;;;;4.30;1.50;;;14.60;99.90;;;;;;5040252;28;20446;-78
2021/08/02 04:40:26;;;;;;;4.13;1.65;;;14.70;99.90;;;;;;5039676;28;20112;-79
2021/08/02 04:42:52;;;;;;;6.47;1.80;;;14.60;99.90;;;;;;5055922;28;20093;-78
2021/08/02 04:45:18;;;;;;;2.85;1.30;;;14.70;99.90;;;;;;5040878;28;20029;-79
2021/08/02 04:47:43;;;;;;;3.97;1.45;;;14.80;99.90;;;;;;5057240;28;20020;-79
2021/08/02 04:50:09;;;;;;;4.50;1.30;;;14.70;99.90;;;;;;5054144;28;20091;-78
2021/08/02 04:52:35;;;;;;;5.40;1.30;;;14.70;99.90;;;;;;5040361;28;20022;-79
2021/08/02 04:55:00;;;;;;;5.03;1.50;;;14.70;99.90;;;;;;5038683;28;20108;-78
2021/08/02 04:57:26;;;;;;;4.47;1.52;;;14.70;99.90;;;;;;5040280;28;20028;-78
2021/08/02 04:59:52;;;;;;;6.65;1.60;;;14.90;99.90;;;;;;5040236;28;20091;-78
2021/08/02 05:02:17;;;;;;;4.35;1.50;;;14.50;99.90;;;;;;5055722;28;20036;-78
2021/08/02 05:04:43;;;;;;;4.85;1.55;;;14.70;99.90;;;;;;5037084;28;20104;-78
2021/08/02 05:07:08;;;;;;;3.40;1.48;;;14.70;99.90;;;;;;5039243;28;20198;-78
2021/08/02 05:09:34;;;;;;;2.83;1.35;;;14.70;99.90;;;;;;5055012;28;20033;-79
2021/08/02 05:12:00;;;;;;;3.78;1.45;;;14.80;99.90;;;;;;5040301;28;20477;-79
2021/08/02 05:14:25;;;;;;;5.45;1.80;;;14.60;99.90;;;;;;5039350;28;20029;-79
2021/08/02 05:16:51;;;;;;;4.72;1.45;;;14.90;99.90;;;;;;5039716;28;20508;-79
2021/08/02 05:19:16;;;;;;;6.50;1.50;;;14.70;99.90;;;;;;5054611;28;20033;-79
2021/08/02 05:21:42;;;;;;;5.32;1.73;;;14.80;99.90;;;;;;5058790;28;20144;-79
2021/08/02 05:24:07;;;;;;;6.07;1.70;;;14.70;99.90;;;;;;5053932;28;20149;-79
2021/08/02 05:26:33;;;;;;;5.22;1.35;;;14.70;99.90;;;;;;5039141;28;20029;-79
2021/08/02 05:28:59;;;;;;;4.70;1.75;;;14.80;99.90;;;;;;5054339;28;20385;-80
2021/08/02 05:31:24;;;;;;;5.50;1.58;;;14.80;99.90;;;;;;5039172;28;20064;-79
2021/08/02 05:33:50;;;;;;;3.92;1.70;;;14.60;99.90;;;;;;5039471;28;20029;-79
2021/08/02 05:36:16;;;;;;;7.40;1.60;;;14.90;99.90;;;;;;5038493;28;20029;-79
2021/08/02 05:38:42;;;;;;;6.03;1.65;;;14.90;99.90;;;;;;5037259;28;20030;-79
2021/08/02 05:41:08;;;;;;;5.90;1.73;;;14.80;99.90;;;;;;5038575;28;20029;-79
2021/08/02 05:43:34;;;;;;;3.33;1.40;;;14.80;99.90;;;;;;5037701;28;20087;-79
2021/08/02 05:46:00;;;;;;;4.20;1.67;;;15.10;99.90;;;;;;5045213;28;20032;-79
2021/08/02 05:48:25;;;;;;;6.70;1.83;;;14.80;99.90;;;;;;5046372;28;20383;-79
2021/08/02 05:50:51;;;;;;;4.93;1.70;;;14.80;99.90;;;;;;5052400;28;20382;-79
2021/08/02 05:53:16;;;;;;;3.85;1.75;;;14.80;99.90;;;;;;5050800;28;20099;-79
2021/08/02 05:55:42;;;;;;;5.18;1.67;;;14.90;99.90;;;;;;5037775;28;20032;-79
2021/08/02 05:58:08;;;;;;;4.28;1.65;;;15.10;99.90;;;;;;5052234;28;20024;-79
2021/08/02 06:00:33;;;;;;;6.25;1.48;;;15.00;99.90;;;;;;5038909;28;20060;-79
2021/08/02 06:02:59;;;;;;;3.83;1.60;;;15.00;99.90;;;;;;5037578;28;20025;-80
2021/08/02 06:05:24;;;;;;;4.70;1.38;;;14.80;99.90;;;;;;5034066;28;20761;-80
2021/08/02 06:07:50;;;;;;;4.13;1.70;;;14.60;99.90;;;;;;5041114;28;20047;-79
2021/08/02 06:10:16;;;;;;;4.35;1.60;;;14.80;99.90;;;;;;5055929;28;20095;-79
2021/08/02 06:12:42;;;;;;;3.53;1.50;;;14.70;99.90;;;;;;5046770;28;20068;-79
2021/08/02 06:15:10;;;;;;;3.65;1.60;;;14.70;99.90;;;;;;5057081;28;20092;-79
2021/08/02 06:17:36;;;;;;;4.82;1.65;;;14.80;99.90;;;;;;5039583;28;20394;-79
2021/08/02 06:20:02;;;;;;;5.03;1.88;;;14.70;99.90;;;;;;5038335;28;20068;-79
2021/08/02 06:22:28;;;;;;;7.32;1.58;;;14.70;99.90;;;;;;5049609;28;20405;-79
2021/08/02 06:24:53;;;;;;;4.05;1.80;;;14.80;99.90;;;;;;5052117;28;20025;-79
2021/08/02 06:27:19;;;;;;;4.22;1.92;;;14.80;99.90;;;;;;5053405;28;20120;-79
2021/08/02 06:29:45;;;;;;;4.72;1.70;;;15.00;99.90;;;;;;5047606;28;20029;-79
2021/08/02 06:32:10;;;;;;;6.93;1.38;;;14.80;99.90;;;;;;5055859;28;20044;-78
2021/08/02 06:34:36;;;;;;;4.75;1.70;;;14.90;99.90;;;;;;5054940;28;20083;-78
2021/08/02 06:37:02;;;;;;;8.90;1.60;;;14.70;99.90;;;;;;5036451;28;20052;-78
2021/08/02 06:39:27;;;;;;;3.92;1.45;;;14.90;99.90;;;;;;5039865;28;20037;-79
2021/08/02 06:41:53;;;;;;;4.20;1.58;;;14.90;99.90;;;;;;5042022;28;20037;-78
2021/08/02 06:44:19;;;;;;;4.07;1.80;;;15.00;99.90;;;;;;5031547;28;20377;-79
2021/08/02 06:46:44;;;;;;;3.17;1.30;;;15.00;99.90;;;;;;5044250;28;20477;-79
2021/08/02 06:49:10;;;;;;;4.38;1.33;;;15.00;99.90;;;;;;5042212;28;20035;-79
2021/08/02 06:51:35;;;;;;;3.88;1.63;;;15.30;99.90;;;;;;5041764;28;20511;-78
2021/08/02 06:54:01;;;;;;;4.18;1.58;;;15.20;99.90;;;;;;5036680;28;20026;-78
2021/08/02 06:56:27;;;;;;;4.82;1.50;;;15.70;99.90;;;;;;5050221;28;20025;-78
2021/08/02 06:58:52;;;;;;;2.88;1.40;;;15.80;99.90;;;;;;5050060;28;20021;-78
2021/08/02 07:01:18;;;;;;;2.50;1.23;;;15.80;99.90;;;;;;5043570;28;20535;-78
2021/08/02 07:03:44;;;;;;;4.55;1.40;;;15.90;99.90;;;;;;5050886;28;20027;-79
2021/08/02 07:06:09;;;;;;;5.20;1.27;;;16.00;99.90;;;;;;5044037;28;20478;-78
2021/08/02 07:08:39;;;;;;;2.83;1.02;;;16.00;99.90;;;;;;5051377;28;20473;-79
2021/08/02 07:11:06;;;;;;;6.88;1.38;;;16.40;99.90;;;;;;5055965;28;20021;-78
2021/08/02 07:13:32;;;;;;;4.25;1.38;;;15.80;99.90;;;;;;5055033;28;20024;-78
2021/08/02 07:16:00;;;;;;;6.63;1.70;;;16.10;99.90;;;;;;5054447;28;20033;-79
2021/08/02 07:18:26;;;;;;;4.43;1.25;;;16.20;99.90;;;;;;5056214;28;20033;-79
2021/08/02 07:20:52;;;;;;;7.82;2.28;;;16.00;99.90;;;;;;5054393;28;20421;-79
2021/08/02 07:23:17;;;;;;;3.83;1.30;;;16.40;99.90;;;;;;5039670;28;20017;-83
2021/08/02 07:25:44;;;;;;;3.38;1.02;;;16.20;99.90;;;;;;5045150;28;20033;-84
2021/08/02 07:28:11;;;;;;;4.15;1.50;;;16.30;99.90;;;;;;5053383;28;20032;-84
2021/08/02 07:30:36;;;;;;;6.07;1.48;;;16.50;99.90;;;;;;5052997;28;20087;-84
2021/08/02 07:33:02;;;;;;;4.72;1.40;;;16.50;99.90;;;;;;5039527;28;20029;-84
2021/08/02 07:35:28;;;;;;;6.00;1.48;;;16.60;99.90;;;;;;5032243;28;20052;-83
2021/08/02 07:37:54;;;;;;;3.05;1.10;;;16.70;99.90;;;;;;5031360;28;20026;-84
2021/08/02 07:40:20;;;;;;;4.85;1.23;;;16.70;99.90;;;;;;5044415;28;20025;-84
2021/08/02 07:42:45;;;;;;;3.33;1.27;;;17.20;99.90;;;;;;5050552;28;20073;-84
2021/08/02 07:45:11;;;;;;;3.95;1.20;;;16.90;99.90;;;;;;5052314;28;20029;-84
2021/08/02 07:47:37;;;;;;;3.08;1.20;;;17.00;99.90;;;;;;5048325;28;20142;-84
2021/08/02 07:50:04;;;;;;;3.97;1.40;;;17.00;99.90;;;;;;5048228;28;20568;-84
2021/08/02 07:52:31;;;;;;;5.20;1.08;;;17.10;99.90;;;;;;5039016;28;20493;-84
2021/08/02 07:54:59;;;;;;;7.88;2.08;;;17.00;99.90;;;;;;5041828;28;20036;-83
2021/08/02 07:57:24;;;;;;;3.45;1.10;;;17.00;99.90;;;;;;5043691;28;20536;-83
2021/08/02 07:59:50;;;;;;;3.72;0.98;;;17.40;99.90;;;;;;5047260;28;20136;-85
2021/08/02 08:02:16;;;;;;;2.17;0.80;;;18.20;99.90;;;;;;5033022;28;20029;-84
2021/08/02 08:04:41;;;;;;;3.92;1.20;;;17.70;99.90;;;;;;5047400;28;20025;-84
2021/08/02 08:07:07;;;;;;;3.95;1.25;;;17.70;99.90;;;;;;5043543;28;20521;-84
2021/08/02 08:09:34;;;;;;;1.98;0.80;;;18.10;99.90;;;;;;5047113;28;20039;-84
2021/08/02 08:12:00;;;;;;;3.28;1.05;;;17.90;99.90;;;;;;5054060;28;20818;-84
2021/08/02 08:14:26;;;;;;;3.58;1.08;;;18.00;99.90;;;;;;5050778;28;20033;-84
2021/08/02 08:16:52;;;;;;;2.45;1.02;;;18.40;99.90;;;;;;5050869;28;20094;-84
2021/08/02 08:19:18;;;;;;;3.53;0.90;;;18.90;99.90;;;;;;5056120;28;20049;-84
2021/08/02 08:21:44;;;;;;;3.22;1.05;;;18.30;99.90;;;;;;5049024;28;20063;-82
2021/08/02 08:24:09;;;;;;;4.32;1.00;;;18.30;99.90;;;;;;5053818;28;20112;-82
2021/08/02 08:26:38;;;;;;;4.25;1.00;;;18.40;99.90;;;;;;5052880;28;20029;-82
2021/08/02 08:29:05;;;;;;;3.03;0.98;;;18.70;99.90;;;;;;5049447;28;20025;-83
2021/08/02 08:31:31;;;;;;;6.22;0.98;;;18.80;99.90;;;;;;5051151;28;20422;-83
2021/08/02 08:33:57;;;;;;;3.20;0.90;;;19.40;99.90;;;;;;5043759;28;20025;-83
2021/08/02 08:36:22;;;;;;;8.50;1.23;;;19.70;99.90;;;;;;5052151;28;20465;-82
2021/08/02 08:38:48;;;;;;;3.00;0.80;;;19.90;99.90;;;;;;5040171;28;20040;-83
2021/08/02 08:41:20;;;;;;;2.20;0.73;;;20.50;99.90;;;;;;5043026;28;20041;-82
2021/08/02 08:43:50;;;;;;;2.05;0.82;;;20.40;99.90;;;;;;5046641;28;20021;-82
2021/08/02 08:46:19;;;;;;;1.90;0.80;;;20.30;99.90;;;;;;5042489;28;20119;-82
2021/08/02 08:48:45;;;;;;;5.15;0.95;;;20.40;99.90;;;;;;5043922;28;20035;-82
2021/08/02 08:51:12;;;;;;;1.70;0.60;;;20.30;99.90;;;;;;5047487;28;20104;-82
2021/08/02 08:53:38;;;;;;;2.10;0.80;;;20.60;99.90;;;;;;5050983;28;20028;-83
2021/08/02 08:56:04;;;;;;;3.03;0.90;;;20.30;99.90;;;;;;5048625;28;20029;-82
2021/08/02 08:58:29;;;;;;;1.88;0.70;;;20.30;99.90;;;;;;5047804;28;20025;-82
2021/08/02 09:00:59;;;;;;;2.25;0.73;;;20.30;99.90;;;;;;5045121;28;20024;-82
2021/08/02 09:03:27;;;;;;;2.30;0.70;;;20.40;99.90;;;;;;5049459;28;20028;-83
2021/08/02 09:06:03;;;;;;;2.97;0.75;;;20.80;99.90;;;;;;5045662;28;20373;-83
2021/08/02 09:08:29;;;;;;;3.97;0.63;;;20.60;99.90;;;;;;5048404;28;20013;-82
2021/08/02 09:11:00;;;;;;;1.60;0.60;;;20.50;99.90;;;;;;5048452;28;20021;-85
2021/08/02 09:13:36;;;;;;;2.30;0.75;;;20.70;99.90;;;;;;5051826;28;20021;-83
2021/08/02 09:16:15;;;;;;;2.70;0.60;;;20.90;99.90;;;;;;5035011;28;20063;-84
2021/08/02 09:18:55;;;;;;;2.75;0.82;;;20.90;99.90;;;;;;5037064;28;20024;-84
2021/08/02 09:21:20;;;;;;;3.85;0.85;;;21.80;99.90;;;;;;5041581;28;20112;-85
2021/08/02 09:23:51;;;;;;;1.27;0.50;;;21.70;99.90;;;;;;5036744;28;20632;-82
2021/08/02 09:26:27;;;;;;;2.85;0.70;;;21.90;99.90;;;;;;5034229;28;20025;-82
2021/08/02 09:28:53;;;;;;;3.35;0.70;;;21.90;99.90;;;;;;5036438;28;20112;-84
2021/08/02 09:31:19;;;;;;;2.78;0.50;;;22.10;99.90;;;;;;5039469;28;20575;-84
2021/08/02 09:33:47;;;;;;;1.40;0.63;;;22.10;99.90;;;;;;5035314;28;20056;-83
2021/08/02 09:36:15;;;;;;;2.45;0.75;;;21.80;99.90;;;;;;5033489;28;20034;-84
2021/08/02 09:38:42;;;;;;;2.38;0.70;;;21.20;99.90;;;;;;5041044;28;20093;-84
2021/08/02 09:41:08;;;;;;;2.85;0.70;;;21.10;99.90;;;;;;5039829;28;20040;-83
2021/08/02 09:43:40;;;;;;;2.17;0.70;;;21.20;99.90;;;;;;5036910;28;20394;-85
2021/08/02 09:46:10;;;;;;;3.80;0.80;;;21.40;99.90;;;;;;5043218;28;20487;-84
2021/08/02 09:48:38;;;;;;;1.85;0.60;;;21.80;99.90;;;;;;5033830;28;20029;-84
2021/08/02 09:51:22;;;;;;;1.75;0.60;;;22.10;99.90;;;;;;5035151;28;20481;-84
2021/08/02 09:53:50;;;;;;;3.47;0.80;;;21.90;99.90;;;;;;5031652;28;20501;-84
2021/08/02 09:56:18;;;;;;;2.60;0.80;;;21.70;99.90;;;;;;5041334;28;20503;-85
2021/08/02 09:58:45;;;;;;;3.28;0.80;;;21.80;99.90;;;;;;5037880;28;20489;-85
2021/08/02 10:01:20;;;;;;;2.65;0.80;;;21.80;99.90;;;;;;5042899;28;20669;-85
2021/08/02 10:03:46;;;;;;;2.72;0.90;;;21.40;99.90;;;;;;5038421;28;20025;-85
2021/08/02 10:06:16;;;;;;;4.28;0.80;;;21.40;99.90;;;;;;5035459;28;20390;-86
2021/08/02 10:08:42;;;;;;;2.58;0.85;;;21.50;99.90;;;;;;5032576;28;20084;-86
2021/08/02 10:11:09;;;;;;;2.20;0.70;;;22.00;99.90;;;;;;5047595;28;20017;-87
2021/08/02 10:13:43;;;;;;;2.70;0.52;;;22.00;99.90;;;;;;5034081;28;20021;-85
2021/08/02 10:16:15;;;;;;;2.55;0.80;;;21.90;99.90;;;;;;5037287;28;20033;-85
2021/08/02 10:18:46;;;;;;;1.90;0.70;;;21.80;99.90;;;;;;5036354;28;20026;-85
2021/08/02 10:21:12;;;;;;;2.80;0.70;;;21.60;99.90;;;;;;5035446;28;20048;-85
2021/08/02 10:23:39;;;;;;;1.55;0.57;;;22.00;99.90;;;;;;5035946;28;20397;-86
2021/08/02 10:26:28;;;;;;;2.53;0.75;;;22.30;99.90;;;;;;5035026;28;20482;-86
2021/08/02 10:28:59;;;;;;;1.88;0.60;;;22.60;99.90;;;;;;5039237;28;20721;-85
2021/08/02 10:31:26;;;;;;;1.25;0.45;;;22.60;99.90;;;;;;5034434;28;20028;-85
2021/08/02 10:33:55;;;;;;;1.60;0.60;;;23.10;99.90;;;;;;5032970;28;20489;-84
2021/08/02 10:36:22;;;;;;;1.80;0.60;;;23.50;99.90;;;;;;5037497;28;20446;-85
2021/08/02 10:38:50;;;;;;;1.92;0.70;;;23.70;99.90;;;;;;5028416;28;20035;-84
2021/08/02 10:41:27;;;;;;;3.35;0.80;;;23.10;99.90;;;;;;5029992;28;20021;-84
2021/08/02 10:43:53;;;;;;;2.22;0.80;;;22.80;99.90;;;;;;5034917;28;20040;-84
2021/08/02 10:46:29;;;;;;;1.45;0.63;;;22.70;99.90;;;;;;5025681;28;20074;-84
2021/08/02 10:49:06;;;;;;;2.75;0.63;;;22.60;99.90;;;;;;5028907;28;20037;-84
2021/08/02 10:51:32;;;;;;;3.85;1.38;;;22.50;99.90;;;;;;5032940;28;20021;-83
2021/08/02 10:54:03;;;;;;;3.50;0.70;;;22.00;99.90;;;;;;5038908;28;20090;-84
2021/08/02 10:56:32;;;;;;;2.28;0.90;;;21.60;99.90;;;;;;5044939;28;20036;-84
2021/08/02 10:59:00;;;;;;;1.70;0.50;;;21.50;99.90;;;;;;5043802;28;20021;-84
2021/08/02 11:01:27;;;;;;;2.13;0.50;;;21.80;99.90;;;;;;5044568;28;20112;-84
2021/08/02 11:03:54;;;;;;;1.55;0.50;;;22.00;99.90;;;;;;5046674;28;20033;-84
2021/08/02 11:06:21;;;;;;;3.33;0.50;;;22.20;99.90;;;;;;5046235;28;20025;-84
2021/08/02 11:08:52;;;;;;;0.90;0.50;;;22.70;99.90;;;;;;5048059;28;20908;-84
2021/08/02 11:11:21;;;;;;;1.95;0.70;;;23.20;99.90;;;;;;5044925;28;20017;-85
2021/08/02 11:13:46;;;;;;;0.93;0.40;;;23.10;99.90;;;;;;5045855;28;20118;-84
2021/08/02 11:16:14;;;;;;;2.80;0.60;;;22.50;98.80;;;;;;5009594;28;1060167;-84
2021/08/02 11:18:47;;;;;;;0.90;0.50;;;21.80;99.00;;;;;;5048256;28;20523;-84
2021/08/02 11:21:25;;;;;;;1.90;0.52;;;21.50;98.70;;;;;;5049306;28;20021;-84
2021/08/02 11:23:54;;;;;;;2.55;0.50;;;20.80;99.90;;;;;;5047145;28;20047;-84
2021/08/02 11:26:22;;;;;;;1.38;0.40;;;20.60;99.90;;;;;;5031302;22;20133;-83
2021/08/02 11:28:49;;;;;;;1.20;0.50;;;20.10;99.90;;;;;;4974171;28;20126;-82
2021/08/02 11:31:16;;;;;;;2.83;0.50;;;19.70;99.90;;;;;;4994713;28;20046;-84
2021/08/02 11:33:43;;;;;;;1.40;0.43;;;19.30;99.90;;;;;;4996189;28;20093;-82
2021/08/02 11:36:21;;;;;;;1.23;0.40;;;19.20;99.90;;;;;;4977628;28;20019;-83
2021/08/02 11:38:48;;;;;;;1.05;0.40;;;19.00;99.90;;;;;;4981955;28;20050;-83
2021/08/02 11:41:28;;;;;;;2.33;0.98;;;19.20;99.90;;;;;;4990384;28;20042;-82
2021/08/02 11:43:57;;;;;;;1.42;0.43;;;19.20;99.90;;;;;;4989744;28;20057;-83
2021/08/02 11:46:22;;;;;;;1.30;0.60;;;19.40;99.90;;;;;;4977740;28;20030;-84
2021/08/02 11:48:49;;;;;;;1.42;0.52;;;20.20;99.90;;;;;;4994713;28;20053;-82
2021/08/02 11:51:18;;;;;;;1.17;0.45;;;21.00;99.90;;;;;;4994585;28;20065;-83
2021/08/02 11:53:44;;;;;;;1.45;0.50;;;21.60;99.90;;;;;;4994268;28;20114;-84
2021/08/02 11:56:10;;;;;;;1.20;0.50;;;22.00;99.90;;;;;;4996299;28;20062;-84
2021/08/02 11:58:46;;;;;;;1.95;0.40;;;22.50;99.90;;;;;;4989840;28;20094;-84
2021/08/02 12:01:13;;;;;;;1.27;0.50;;;22.60;99.90;;;;;;4999826;28;20058;-84
2021/08/02 12:03:43;;;;;;;1.55;0.45;;;22.70;99.90;;;;;;4984394;28;20031;-84
2021/08/02 12:06:09;;;;;;;2.20;0.60;;;23.10;99.90;;;;;;4962097;28;20117;-84
2021/08/02 12:08:36;;;;;;;0.75;0.35;;;23.60;99.90;;;;;;4988037;28;20308;-83
2021/08/02 12:11:04;;;;;;;1.35;0.47;;;23.50;99.90;;;;;;4997154;28;20026;-83
2021/08/02 12:13:43;;;;;;;1.70;0.65;;;23.40;99.90;;;;;;4981544;28;20026;-82
2021/08/02 12:16:11;;;;;;;1.73;0.60;;;23.10;99.90;;;;;;4988238;28;20022;-83
2021/08/02 12:18:37;;;;;;;2.10;0.60;;;22.50;99.90;;;;;;4980902;28;20061;-83
2021/08/02 12:21:12;;;;;;;2.42;0.60;;;21.90;99.90;;;;;;4984788;28;20026;-82
2021/08/02 12:23:39;;;;;;;2.28;0.60;;;21.30;99.90;;;;;;4996736;28;20033;-82
2021/08/02 12:26:21;;;;;;;1.60;0.60;;;21.10;99.90;;;;;;4995658;28;20046;-82
2021/08/02 12:28:48;;;;;;;2.40;0.50;;;20.40;99.90;;;;;;4977212;28;20497;-82
2021/08/02 12:31:21;;;;;;;1.85;0.50;;;20.20;99.90;;;;;;4977461;28;20057;-80
2021/08/02 12:33:49;;;;;;;1.08;0.30;;;20.00;99.90;;;;;;4962004;28;20030;-81
2021/08/02 12:36:16;;;;;;;0.52;0.20;;;20.30;99.90;;;;;;4975911;28;20022;-81
2021/08/02 12:38:44;;;;;;;0.95;0.30;;;20.00;99.90;;;;;;4979361;28;20029;-81
2021/08/02 12:41:10;;;;;;;0.50;0.20;;;20.80;99.90;;;;;;4984872;28;20058;-82
2021/08/02 12:43:35;;;;;;;1.80;0.30;;;21.40;99.90;;;;;;4979997;28;20065;-82
2021/08/02 12:46:01;;;;;;;0.50;0.30;;;22.40;99.80;;;;;;4987381;28;20067;-80
2021/08/02 12:48:27;;;;;;;0.40;0.20;;;23.00;99.90;;;;;;4998118;28;20479;-82
2021/08/02 12:50:52;;;;;;;0.90;0.30;;;23.40;98.40;;;;;;4997835;28;20082;-82
2021/08/02 12:53:18;;;;;;;1.33;0.40;;;23.90;98.90;;;;;;4983140;28;20549;-81
2021/08/02 12:55:44;;;;;;;0.60;0.30;;;24.40;97.60;;;;;;5000191;28;20076;-81
2021/08/02 12:58:09;;;;;;;3.45;0.60;;;24.60;97.70;;;;;;5000793;28;20030;-81
2021/08/02 13:00:35;;;;;;;0.93;0.50;;;25.00;97.30;;;;;;4998191;28;20027;-82
2021/08/02 13:03:00;;;;;;;2.25;0.65;;;25.50;98.00;;;;;;4984032;28;20026;-83
2021/08/02 13:05:26;;;;;;;1.90;0.65;;;25.80;96.80;;;;;;4974256;28;20035;-83
2021/08/02 13:07:52;;;;;;;2.65;0.60;;;25.90;95.40;;;;;;4973373;28;20467;-82
2021/08/02 13:10:17;;;;;;;1.90;0.70;;;25.90;95.90;;;;;;4977392;28;20106;-82
2021/08/02 13:12:43;;;;;;;1.25;0.40;;;25.70;95.10;;;;;;4959629;28;20041;-84
2021/08/02 13:15:09;;;;;;;1.13;0.40;;;26.10;96.40;;;;;;4974133;28;20057;-83
2021/08/02 13:17:35;;;;;;;1.42;0.50;;;26.30;97.00;;;;;;4958001;28;20031;-82
2021/08/02 13:20:02;;;;;;;2.50;0.70;;;25.80;95.80;;;;;;4976153;28;20180;-82
2021/08/02 13:22:39;;;;;;;2.80;0.70;;;25.10;96.20;;;;;;4972520;28;20037;-82
2021/08/02 13:27:50;;;;;;;2.63;0.70;;;23.30;98.30;;;;;;4974986;28;20153;-83
2021/08/02 13:30:15;;;;;;;1.85;0.80;;;22.70;99.70;;;;;;4975038;28;20034;-83
2021/08/02 13:32:41;;;;;;;1.88;0.47;;;22.20;99.90;;;;;;4976367;28;20034;-84
2021/08/02 13:35:07;;;;;;;1.17;0.50;;;21.70;99.90;;;;;;4970954;28;20015;-83
2021/08/02 13:37:33;;;;;;;1.05;0.50;;;21.50;99.90;;;;;;4995732;28;20026;-83
2021/08/02 13:39:58;;;;;;;1.77;0.60;;;22.00;99.90;;;;;;4978634;28;20028;-83
2021/08/02 13:42:24;;;;;;;2.00;0.40;;;22.80;99.60;;;;;;4966497;28;20504;-82
2021/08/02 13:44:50;;;;;;;0.90;0.47;;;23.60;97.50;;;;;;4980154;28;20042;-83
2021/08/02 13:47:15;;;;;;;2.53;0.30;;;23.90;98.40;;;;;;4980148;28;20363;-83
2021/08/02 13:49:41;;;;;;;1.10;0.40;;;24.40;96.00;;;;;;4995397;28;20066;-83
2021/08/02 13:52:07;;;;;;;0.77;0.40;;;24.60;95.30;;;;;;4980616;28;20023;-84
2021/08/02 13:54:33;;;;;;;1.15;0.40;;;24.80;95.60;;;;;;4968525;28;20038;-84
2021/08/02 13:56:59;;;;;;;1.50;0.60;;;24.80;96.00;;;;;;4976920;28;20107;-83
2021/08/02 13:59:24;;;;;;;0.82;0.30;;;24.00;96.30;;;;;;4995780;28;20110;-84
2021/08/02 14:01:50;;;;;;;1.33;0.63;;;24.90;95.90;;;;;;4996835;28;20037;-84
2021/08/02 14:04:15;;;;;;;1.10;0.50;;;25.40;95.30;;;;;;4995582;28;20030;-83
2021/08/02 14:06:41;;;;;;;1.38;0.40;;;25.90;94.60;;;;;;4974334;28;20047;-84
2021/08/02 14:09:07;;;;;;;1.92;0.63;;;26.50;93.50;;;;;;4997218;28;20038;-84
2021/08/02 14:11:34;;;;;;;2.78;0.70;;;26.90;92.00;;;;;;4987330;28;20077;-84
2021/08/02 14:14:00;;;;;;;2.22;0.55;;;27.50;91.80;;;;;;4989794;28;20081;-84
2021/08/02 14:16:35;;;;;;;2.67;0.70;;;28.10;90.60;;;;;;4996224;28;20030;-84
2021/08/02 14:19:15;;;;;;;2.25;0.40;;;28.20;88.10;;;;;;4961649;28;20109;-84
2021/08/02 14:21:43;;;;;;;1.40;0.43;;;27.20;87.30;;;;;;4961975;28;20065;-84
2021/08/02 14:24:11;;;;;;;1.75;0.57;;;26.60;88.40;;;;;;4962009;28;20023;-84
2021/08/02 14:26:38;;;;;;;1.63;0.40;;;25.60;90.40;;;;;;4968740;28;20157;-84
2021/08/02 14:29:04;;;;;;;1.58;0.40;;;24.90;91.90;;;;;;4999954;28;20105;-84
2021/08/02 14:31:31;;;;;;;1.70;0.55;;;24.30;92.70;;;;;;4991245;28;20770;-84
2021/08/02 14:33:57;;;;;;;1.60;0.60;;;23.80;93.20;;;;;;4997989;28;20476;-83
2021/08/02 14:36:25;;;;;;;1.60;0.75;;;23.50;94.90;;;;;;4979417;28;20023;-83
2021/08/02 14:38:59;;;;;;;3.00;0.80;;;23.20;95.80;;;;;;4997401;28;20061;-84
2021/08/02 14:41:43;;;;;;;2.63;0.65;;;22.90;98.50;;;;;;4978949;28;20030;-84
2021/08/02 14:44:10;;;;;;;1.95;0.77;;;22.90;98.00;;;;;;4988083;28;20030;-83
2021/08/02 14:46:36;;;;;;;1.75;0.75;;;22.90;98.70;;;;;;4996122;28;20062;-83
2021/08/02 14:49:05;;;;;;;2.95;0.88;;;22.80;99.30;;;;;;4993688;28;20022;-84
2021/08/02 14:51:44;;;;;;;2.55;0.93;;;22.70;99.70;;;;;;4989003;28;20668;-83
2021/08/02 14:54:12;;;;;;;2.88;0.73;;;22.60;99.50;;;;;;4993556;28;20023;-83
2021/08/02 14:56:38;;;;;;;1.67;0.73;;;22.50;99.50;;;;;;4997648;28;20088;-83
2021/08/02 14:59:05;;;;;;;2.25;0.60;;;22.60;99.40;;;;;;4984145;28;20022;-83